Accueil
METAR-TAF:

METAR-TAF

Aéroports :

Aéroport international Saint-Gall-Altenrhein

Saint-Gall, Suisse

latitude: 47-29-06N, longitude: 009-33-43E, altitude: 398 m

Observation

Le bulletin a été fait il y a 18 minutes, à 20:20 UTC
Vent 2 kt de ouest
Température 13°C
Humidité 94%
Pression 1029 hPa
Visibilité 10 km ou plus

METAR: LSZR 062020Z AUTO 27002KT 9999 NCD 13/12 Q1029

Heure: 22:38 (20:38 UTC)

Prévision

Le bulletin a été fait il y a 6 heures et 13 minutes, à 14:25 UTC
Prévision valable du 06 à 15 UTC au 06 à 24 UTC
Vent 6 kt de ouest
Visibilité 10 km ou plus
pas de nuages en-dessous de 1500 mètres et pas de cumulonimbus.
Temporairement
du 06 à 15 UTC au 06 à 21 UTC
Visibilité 10 km ou plus
Quelques nuages à une hauteur de 4000 ft
Evoluant progressivement
du 06 à 19 UTC au 06 à 22 UTC
Nuages fragmentés à une hauteur de 1200 ft

TAF: LSZR 061425Z 0615/0624 27006KT CAVOK TEMPO 0615/0621 9999 FEW040 BECMG 0619/0622 BKN012

Observations et prévisions météorologiques de plus de 4000 aéroports (messages METAR et TAF).

Les stations disponibles sont représentées par des disques jaunes et rouges sur la carte.

Passer la souris dessus pour voir le nom de la station.

Cliquer dessus pour voir les observations et prévisions météorologiques.

Pour changer de carte: cliquez sur les boutons verts avec une croix noire pour zoomer, sur le bouton vert avec un tiret pour effectuer un zoom arrière, ou sur les flèches vertes pour les cartes adjacentes.


METAR-TAF: